Allerton, New York
Current Conditions -  °F | °C
As of 3:51 AM on Thursday 23 Oct 2014 (Local Time) from KLGA Reporting Station
Moderate Rain Moderate Rain  
Wind Chill: 53°   Ceiling: 2000
Heat Index: 53°   Visibility: 10mi
Dew Point: 47°   Wind: 15mph
Humidity: 80%   Direction: 10°N
Pressure: 29.7"   Gusts: NA
Location:  40.8778°N, 73.8721°W
Report Text: KLGA 230751Z 01013KT 10SM RA BKN020 OVC027 12/08 A2970 RMK AO2 RAB46 SLP055 P0000 T01170083
Loading
Personal Weather Stations






























Interactive Weather Map
Tropical Storm Tracking
New forecast layout! Learn more

10-Day Weather Forecast

Advertisements
Track Severe Weather on mobile